Time;durP1;ratioP1;P1;durP2;ratioP2;P2;SDS_P1;SDS_P2;PMS_P1;PMS_P2;Temp;Humidity;BMP_temperature;BMP_pressure;BME280_temperature;BME280_humidity;BME280_pressure;Samples;Min_cycle;Max_cycle;Signal;HPM_P1;HPM_P2
2022/06/07 00:01:37;;;;;;;21.77;17.05;;;12.10;99.90;;;;;;5054077;28;20056;-79
2022/06/07 00:04:03;;;;;;;25.33;20.55;;;12.10;99.90;;;;;;5030893;28;20048;-80
2022/06/07 00:06:29;;;;;;;28.63;20.65;;;12.10;99.90;;;;;;5060864;28;20036;-80
2022/06/07 00:08:56;;;;;;;25.65;20.92;;;12.10;99.90;;;;;;5028095;28;20693;-80
2022/06/07 00:11:22;;;;;;;24.60;20.17;;;12.10;99.90;;;;;;5061198;28;20052;-79
2022/06/07 00:13:51;;;;;;;28.85;19.58;;;12.10;99.90;;;;;;5046112;28;20044;-80
2022/06/07 00:16:17;;;;;;;28.17;22.70;;;12.20;99.90;;;;;;5045047;28;20479;-80
2022/06/07 00:18:44;;;;;;;26.45;21.50;;;12.20;99.90;;;;;;5029640;28;20125;-80
2022/06/07 00:21:10;;;;;;;29.20;23.02;;;12.20;99.90;;;;;;5064225;28;20048;-80
2022/06/07 00:23:36;;;;;;;26.38;21.85;;;12.20;99.90;;;;;;5029587;28;20048;-80
2022/06/07 00:26:04;;;;;;;28.05;23.58;;;12.20;99.90;;;;;;5062256;28;20071;-80
2022/06/07 00:28:31;;;;;;;32.40;24.33;;;12.20;99.90;;;;;;5041968;28;20615;-79
2022/06/07 00:30:57;;;;;;;27.75;24.10;;;12.20;99.90;;;;;;5056167;28;20048;-80
2022/06/07 00:33:24;;;;;;;29.15;24.13;;;12.20;99.90;;;;;;5025751;28;20146;-80
2022/06/07 00:35:51;;;;;;;27.00;23.98;;;12.20;99.90;;;;;;5025249;28;20094;-80
2022/06/07 00:38:18;;;;;;;33.30;23.52;;;12.20;99.90;;;;;;5048577;28;20044;-80
2022/06/07 00:40:44;;;;;;;29.45;24.40;;;12.30;99.90;;;;;;5048035;28;20051;-79
2022/06/07 00:43:10;;;;;;;26.85;22.35;;;12.30;99.90;;;;;;5032323;28;20411;-80
2022/06/07 00:45:38;;;;;;;26.75;22.15;;;12.20;99.90;;;;;;5050628;28;20050;-81
2022/06/07 00:48:06;;;;;;;28.15;22.15;;;12.20;99.90;;;;;;5049133;28;20135;-80
2022/06/07 00:50:38;;;;;;;27.73;22.17;;;12.30;99.90;;;;;;5044017;28;20082;-80
2022/06/07 00:53:05;;;;;;;;;;;12.30;99.90;;;;;;5076710;28;20138;-80
2022/06/07 00:55:32;;;;;;;24.05;21.50;;;12.30;99.90;;;;;;5047216;28;19919;-79
2022/06/07 00:58:06;;;;;;;25.70;21.40;;;12.30;99.90;;;;;;5041253;28;20051;-80
2022/06/07 01:00:45;;;;;;;23.85;21.20;;;12.30;99.90;;;;;;5027404;28;20139;-80
2022/06/07 01:03:14;;;;;;;25.15;22.35;;;12.30;99.90;;;;;;5032776;28;20036;-80
2022/06/07 01:05:44;;;;;;;24.85;22.20;;;12.30;99.90;;;;;;5048847;28;20035;-80
2022/06/07 01:11:14;;;;;;;26.27;23.60;;;12.40;99.90;;;;;;5057953;28;20054;-81
2022/06/07 01:13:40;;;;;;;27.45;24.45;;;12.40;99.90;;;;;;5030741;28;20079;-80
2022/06/07 01:16:14;;;;;;;25.30;22.75;;;12.40;99.90;;;;;;5019450;28;20052;-80
2022/06/07 01:18:44;;;;;;;27.98;25.08;;;12.40;99.90;;;;;;5029795;28;20040;-80
2022/06/07 01:21:29;;;;;;;26.40;23.60;;;12.40;99.90;;;;;;5045826;28;20040;-80
2022/06/07 01:23:56;;;;;;;27.85;24.98;;;12.40;99.90;;;;;;5046408;28;20127;-80
2022/06/07 01:26:26;;;;;;;32.60;25.60;;;12.40;99.90;;;;;;5028870;28;20044;-80
2022/06/07 01:28:53;;;;;;;29.20;25.15;;;12.40;99.90;;;;;;5025121;28;20048;-80
2022/06/07 01:31:19;;;;;;;29.08;26.02;;;12.50;99.90;;;;;;5047291;28;20047;-80
2022/06/07 01:33:46;;;;;;;27.58;24.70;;;12.50;99.90;;;;;;5047524;28;20040;-79
2022/06/07 01:36:14;;;;;;;27.52;24.73;;;12.50;99.90;;;;;;5013292;28;20047;-79
2022/06/07 01:38:43;;;;;;;27.13;24.42;;;12.50;99.90;;;;;;5064491;28;20047;-80
2022/06/07 01:43:58;;;;;;;26.73;22.88;;;12.50;99.90;;;;;;5057819;28;20039;-79
2022/06/07 01:46:25;;;;;;;25.20;22.00;;;12.50;99.90;;;;;;5049552;28;20073;-79
2022/06/07 01:48:51;;;;;;;22.77;20.45;;;12.50;99.90;;;;;;5061747;28;21007;-79
2022/06/07 01:51:17;;;;;;;23.40;20.88;;;12.50;99.90;;;;;;5010928;28;20565;-80
2022/06/07 01:53:45;;;;;;;23.17;20.63;;;12.50;99.90;;;;;;5033292;28;20147;-80
2022/06/07 01:56:16;;;;;;;23.83;21.20;;;12.50;99.90;;;;;;5035085;28;20055;-80
2022/06/07 01:58:45;;;;;;;21.38;19.15;;;12.50;99.90;;;;;;5044674;28;20075;-80
2022/06/07 02:01:13;;;;;;;21.15;18.83;;;12.60;99.90;;;;;;5013966;28;20051;-79
2022/06/07 02:03:40;;;;;;;22.65;20.25;;;12.50;99.90;;;;;;5046897;28;20044;-80
2022/06/07 02:06:09;;;;;;;22.08;18.63;;;12.60;99.90;;;;;;5042284;28;20036;-80
2022/06/07 02:08:42;;;;;;;20.90;18.70;;;12.60;99.90;;;;;;5065106;28;20119;-79
2022/06/07 02:11:15;;;;;;;22.65;18.25;;;12.60;99.90;;;;;;5071788;28;20133;-79
2022/06/07 02:13:44;;;;;;;20.55;18.23;;;12.60;99.90;;;;;;5048618;28;20133;-80
2022/06/07 02:16:10;;;;;;;20.30;17.27;;;12.60;99.90;;;;;;5024409;28;20048;-80
2022/06/07 02:18:42;;;;;;;20.27;17.95;;;12.60;99.90;;;;;;5029094;28;20040;-80
2022/06/07 02:21:24;;;;;;;21.63;17.95;;;12.60;99.90;;;;;;5075197;28;20045;-79
2022/06/07 02:23:57;;;;;;;19.60;17.40;;;12.60;99.90;;;;;;5031191;28;20081;-79
2022/06/07 02:26:49;;;;;;;21.00;17.88;;;12.60;99.90;;;;;;5059374;28;20048;-79
2022/06/07 02:29:25;;;;;;;22.35;18.52;;;12.60;99.90;;;;;;5064814;28;20040;-79
2022/06/07 02:32:00;;;;;;;19.38;17.08;;;12.60;99.90;;;;;;5061645;28;20043;-80
2022/06/07 02:34:27;;;;;;;23.42;17.10;;;12.60;99.90;;;;;;5059027;28;20709;-79
2022/06/07 02:36:56;;;;;;;24.60;17.98;;;12.60;99.90;;;;;;5054632;28;20043;-79
2022/06/07 02:39:24;;;;;;;20.48;16.92;;;12.60;99.90;;;;;;5052799;28;20044;-79
2022/06/07 02:41:51;;;;;;;21.05;17.25;;;12.60;99.90;;;;;;5080619;28;20126;-79
2022/06/07 02:44:17;;;;;;;21.92;16.92;;;12.60;99.90;;;;;;5028908;28;20127;-79
2022/06/07 02:46:43;;;;;;;18.83;16.85;;;12.60;99.90;;;;;;5045417;28;20436;-79
2022/06/07 02:49:10;;;;;;;22.02;16.83;;;12.60;99.90;;;;;;5043852;28;20106;-79
2022/06/07 02:51:42;;;;;;;22.67;16.73;;;12.60;99.90;;;;;;5060686;28;20547;-79
2022/06/07 02:54:08;;;;;;;19.35;17.00;;;12.60;99.90;;;;;;5029789;28;20148;-79
2022/06/07 02:56:34;;;;;;;20.83;16.80;;;12.60;99.90;;;;;;5029529;28;20135;-78
2022/06/07 02:59:01;;;;;;;25.27;17.90;;;12.60;99.90;;;;;;5028059;28;20119;-79
2022/06/07 03:01:29;;;;;;;21.63;17.65;;;12.60;99.90;;;;;;5040567;28;20040;-79
2022/06/07 03:03:58;;;;;;;20.58;18.38;;;12.60;99.90;;;;;;5036835;28;20043;-78
2022/06/07 03:06:26;;;;;;;19.13;17.02;;;12.60;99.90;;;;;;5028518;28;20070;-79
2022/06/07 03:08:53;;;;;;;19.30;16.83;;;12.60;99.90;;;;;;5037552;28;20070;-79
2022/06/07 03:11:22;;;;;;;21.42;17.23;;;12.60;99.90;;;;;;5045142;28;20130;-79
2022/06/07 03:13:49;;;;;;;20.15;16.45;;;12.60;99.90;;;;;;5049205;28;20040;-79
2022/06/07 03:16:24;;;;;;;17.40;15.50;;;12.60;99.90;;;;;;5054796;28;20044;-79
2022/06/07 03:18:50;;;;;;;19.77;16.50;;;12.60;99.90;;;;;;5027819;28;20047;-79
2022/06/07 03:21:18;;;;;;;20.00;16.80;;;12.60;99.90;;;;;;5045087;28;20044;-78
2022/06/07 03:23:46;;;;;;;21.75;17.20;;;12.60;99.90;;;;;;5050522;28;20291;-79
2022/06/07 03:26:14;;;;;;;21.77;17.40;;;12.60;99.90;;;;;;5041762;28;20095;-80
2022/06/07 03:28:47;;;;;;;20.30;15.82;;;12.60;99.90;;;;;;5056986;28;20051;-80
2022/06/07 03:31:17;;;;;;;22.02;17.60;;;12.60;99.90;;;;;;5040739;28;20457;-80
2022/06/07 03:33:48;;;;;;;22.70;18.05;;;12.60;99.90;;;;;;5034123;28;20195;-79
2022/06/07 03:36:22;;;;;;;23.35;16.67;;;12.60;99.90;;;;;;5024627;28;20127;-79
2022/06/07 03:38:52;;;;;;;20.60;17.38;;;12.60;99.90;;;;;;5049179;28;20047;-79
2022/06/07 03:41:24;;;;;;;20.80;17.50;;;12.60;99.90;;;;;;5022888;28;20045;-79
2022/06/07 03:43:56;;;;;;;19.63;17.20;;;12.60;99.90;;;;;;5053996;28;20059;-78
2022/06/07 03:46:25;;;;;;;20.13;17.08;;;12.60;99.90;;;;;;5016225;28;20211;-81
2022/06/07 03:48:52;;;;;;;22.20;17.38;;;12.60;99.90;;;;;;5038474;28;20036;-80
2022/06/07 03:51:24;;;;;;;20.05;17.25;;;12.60;99.90;;;;;;5040209;28;20827;-79
2022/06/07 03:53:50;;;;;;;23.20;18.25;;;12.60;99.90;;;;;;5043715;28;20060;-79
2022/06/07 03:56:18;;;;;;;21.77;18.42;;;12.60;99.90;;;;;;5048303;28;20150;-79
2022/06/07 03:58:48;;;;;;;21.88;18.48;;;12.60;99.90;;;;;;5055393;28;20059;-79
2022/06/07 04:01:17;;;;;;;23.45;18.27;;;12.60;99.90;;;;;;5041076;28;20048;-79
2022/06/07 04:03:49;;;;;;;20.83;16.13;;;12.70;99.90;;;;;;5058168;28;20048;-78
2022/06/07 04:06:17;;;;;;;23.40;18.02;;;12.70;99.90;;;;;;5042432;28;20077;-78
2022/06/07 04:08:44;;;;;;;20.88;17.90;;;12.70;99.90;;;;;;5042622;28;20052;-79
2022/06/07 04:11:12;;;;;;;18.95;16.75;;;12.60;99.90;;;;;;5063324;28;20408;-79
2022/06/07 04:13:53;;;;;;;22.85;17.65;;;12.70;99.90;;;;;;5043240;28;20054;-79
2022/06/07 04:16:22;;;;;;;20.83;16.55;;;12.60;99.90;;;;;;5029030;28;20051;-79
2022/06/07 04:18:56;;;;;;;19.75;17.00;;;12.70;99.90;;;;;;5060673;28;20559;-79
2022/06/07 04:21:24;;;;;;;20.75;16.75;;;12.70;99.90;;;;;;5061417;28;20082;-79
2022/06/07 04:23:54;;;;;;;18.08;16.13;;;12.70;99.90;;;;;;5043482;28;20040;-79
2022/06/07 04:26:24;;;;;;;19.10;16.38;;;12.70;99.90;;;;;;5029413;28;20051;-79
2022/06/07 04:28:52;;;;;;;21.75;17.55;;;12.70;99.90;;;;;;5046942;28;20058;-79
2022/06/07 04:31:23;;;;;;;18.98;16.85;;;12.70;99.90;;;;;;5032063;28;20043;-79
2022/06/07 04:33:54;;;;;;;22.10;16.20;;;12.70;99.90;;;;;;5047087;28;20055;-78
2022/06/07 04:36:22;;;;;;;20.25;16.05;;;12.70;99.90;;;;;;5036966;28;20082;-78
2022/06/07 04:38:52;;;;;;;21.50;16.15;;;12.70;99.90;;;;;;5038003;28;20055;-78
2022/06/07 04:41:23;;;;;;;20.75;16.15;;;12.80;99.90;;;;;;5047906;28;20043;-79
2022/06/07 04:43:54;;;;;;;;;;;12.70;99.90;;;;;;5039458;28;20765;-78
2022/06/07 04:46:21;;;;;;;19.95;17.17;;;12.70;99.90;;;;;;5045454;28;20936;-79
2022/06/07 04:48:51;;;;;;;19.35;17.35;;;12.80;99.90;;;;;;5032106;28;20040;-79
2022/06/07 04:51:30;;;;;;;23.42;18.05;;;12.70;99.90;;;;;;5024353;28;20049;-78
2022/06/07 04:54:09;;;;;;;18.85;16.60;;;12.70;99.90;;;;;;5079407;28;20561;-79
2022/06/07 04:56:41;;;;;;;23.35;17.25;;;12.80;99.90;;;;;;5013675;28;20039;-78
2022/06/07 04:59:09;;;;;;;20.63;17.42;;;12.80;99.90;;;;;;5044491;28;20052;-78
2022/06/07 05:01:41;;;;;;;21.17;17.13;;;12.80;99.90;;;;;;5031584;28;20044;-79
2022/06/07 05:04:13;;;;;;;19.05;16.85;;;12.80;99.90;;;;;;5043030;28;20045;-78
2022/06/07 05:06:45;;;;;;;25.95;19.17;;;12.80;99.90;;;;;;5031687;28;20040;-78
2022/06/07 05:09:24;;;;;;;21.92;18.35;;;12.90;99.90;;;;;;5028597;28;20047;-79
2022/06/07 05:11:58;;;;;;;23.50;19.60;;;12.90;99.90;;;;;;5025954;28;20055;-78
2022/06/07 05:14:25;;;;;;;21.70;18.40;;;12.90;99.90;;;;;;5059569;28;20047;-79
2022/06/07 05:16:52;;;;;;;21.25;18.65;;;12.90;99.90;;;;;;5046408;28;22079;-76
2022/06/07 05:19:23;;;;;;;;;;;12.90;99.90;;;;;;5059864;28;20052;-80
2022/06/07 05:22:12;;;;;;;25.00;19.38;;;12.90;99.90;;;;;;5057177;28;20376;-81
2022/06/07 05:24:43;;;;;;;25.75;17.65;;;13.00;99.90;;;;;;5076233;28;20061;-78
2022/06/07 05:27:16;;;;;;;23.17;18.02;;;13.00;99.90;;;;;;5064216;28;20131;-78
2022/06/07 05:29:47;;;;;;;;;;;13.00;99.90;;;;;;5031830;28;20090;-77
2022/06/07 05:32:21;;;;;;;20.25;16.58;;;13.00;99.90;;;;;;5061810;28;19920;-76
2022/06/07 05:34:51;;;;;;;21.77;18.38;;;13.00;99.90;;;;;;5060513;28;20047;-76
2022/06/07 05:37:22;;;;;;;20.17;17.85;;;13.00;99.90;;;;;;5045309;28;20044;-76
2022/06/07 05:39:59;;;;;;;21.42;17.58;;;13.10;99.90;;;;;;5028319;28;20530;-77
2022/06/07 05:42:28;;;;;;;22.15;19.35;;;13.00;99.90;;;;;;5029574;28;20059;-78
2022/06/07 05:44:54;;;;;;;23.42;19.45;;;13.00;99.90;;;;;;5045598;28;20036;-77
2022/06/07 05:47:20;;;;;;;24.02;20.50;;;13.10;99.90;;;;;;5030159;28;20733;-78
2022/06/07 05:49:52;;;;;;;22.15;19.85;;;13.10;99.90;;;;;;5030159;28;20147;-78
2022/06/07 05:52:22;;;;;;;22.13;19.17;;;13.10;99.90;;;;;;5044651;28;20517;-78
2022/06/07 05:54:50;;;;;;;21.80;19.27;;;13.10;99.90;;;;;;5034038;28;20051;-78
2022/06/07 05:57:16;;;;;;;22.80;18.00;;;13.10;99.90;;;;;;5067344;28;20074;-78
2022/06/07 05:59:44;;;;;;;21.38;18.65;;;13.00;99.90;;;;;;5063700;28;20123;-78
2022/06/07 06:02:13;;;;;;;25.20;19.15;;;13.00;99.90;;;;;;5031760;28;20153;-77
2022/06/07 06:04:43;;;;;;;22.25;19.38;;;13.00;99.90;;;;;;5030389;28;20047;-79
2022/06/07 06:07:14;;;;;;;23.25;19.70;;;13.00;99.90;;;;;;5026915;28;20587;-79
2022/06/07 06:12:42;;;;;;;21.42;18.15;;;13.00;99.90;;;;;;5056739;28;20212;-81
2022/06/07 06:15:18;;;;;;;20.70;17.58;;;13.00;99.90;;;;;;5033888;28;20054;-78
2022/06/07 06:17:45;;;;;;;19.65;17.65;;;13.00;99.90;;;;;;5044389;28;20048;-78
2022/06/07 06:20:20;;;;;;;21.75;17.90;;;13.00;99.90;;;;;;5012032;28;20417;-78
2022/06/07 06:22:49;;;;;;;25.27;18.75;;;13.00;99.90;;;;;;5049640;28;20102;-79
2022/06/07 06:25:15;;;;;;;22.02;18.80;;;13.00;99.90;;;;;;5053675;28;20036;-79
2022/06/07 06:27:42;;;;;;;22.02;19.42;;;13.00;99.90;;;;;;5057888;28;20071;-78
2022/06/07 06:30:10;;;;;;;24.05;21.40;;;12.90;99.90;;;;;;5049582;28;20068;-78
2022/06/07 06:32:46;;;;;;;26.33;21.40;;;12.90;99.90;;;;;;5016153;28;20371;-78
2022/06/07 06:35:51;;;;;;;28.15;23.85;;;12.80;99.90;;;;;;5034621;28;20048;-79
2022/06/07 06:38:20;;;;;;;27.30;23.23;;;12.70;99.90;;;;;;5046434;28;20113;-78
2022/06/07 06:40:48;;;;;;;32.03;24.35;;;12.70;99.90;;;;;;5023594;28;20040;-78
2022/06/07 06:43:16;;;;;;;28.95;24.05;;;12.70;99.90;;;;;;5028297;28;20051;-77
2022/06/07 06:46:12;;;;;;;28.83;22.20;;;12.70;99.90;;;;;;5060906;28;20055;-78
2022/06/07 06:48:43;;;;;;;27.58;20.65;;;12.70;99.90;;;;;;5083609;27;20645;-78
2022/06/07 06:51:13;;;;;;;22.75;20.10;;;12.60;99.90;;;;;;5029205;28;20039;-79
2022/06/07 06:53:44;;;;;;;26.58;20.67;;;12.70;99.90;;;;;;5048731;28;20518;-79
2022/06/07 06:56:22;;;;;;;26.65;21.63;;;12.60;99.90;;;;;;5046197;28;20047;-78
2022/06/07 06:58:50;;;;;;;30.48;21.52;;;12.60;99.90;;;;;;5041747;28;20170;-79
2022/06/07 07:01:32;;;;;;;26.08;21.38;;;12.70;99.90;;;;;;5046416;28;20090;-80
2022/06/07 07:04:05;;;;;;;23.73;20.05;;;12.60;99.90;;;;;;5079797;28;20101;-77
2022/06/07 07:06:33;;;;;;;;;;;12.70;99.90;;;;;;5046225;28;20171;-78
2022/06/07 07:09:03;;;;;;;25.98;19.83;;;12.80;99.90;;;;;;5047669;28;20005;-81
2022/06/07 07:11:37;;;;;;;23.70;19.65;;;12.80;99.90;;;;;;5045473;28;20075;-80
2022/06/07 07:14:08;;;;;;;24.75;18.70;;;12.90;99.90;;;;;;5060729;28;20050;-79
2022/06/07 07:16:41;;;;;;;24.20;18.77;;;12.90;99.90;;;;;;5050566;28;20047;-78
2022/06/07 07:19:11;;;;;;;19.70;17.13;;;13.00;99.90;;;;;;5045064;28;20044;-78
2022/06/07 07:21:44;;;;;;;20.15;16.20;;;13.10;99.90;;;;;;5046312;28;20046;-78
2022/06/07 07:24:17;;;;;;;20.30;14.27;;;13.20;99.90;;;;;;5063569;28;20040;-78
2022/06/07 07:26:48;;;;;;;15.93;12.35;;;13.30;99.90;;;;;;5079148;28;20046;-79
2022/06/07 07:29:20;;;;;;;13.60;9.80;;;13.30;99.90;;;;;;5042145;28;20050;-81
2022/06/07 07:31:48;;;;;;;14.70;8.68;;;13.30;99.90;;;;;;5045110;28;20559;-79
2022/06/07 07:34:16;;;;;;;12.15;8.15;;;13.30;99.90;;;;;;5027989;28;20119;-76
2022/06/07 07:36:48;;;;;;;12.63;8.27;;;13.30;99.90;;;;;;5046052;28;20044;-79
2022/06/07 07:39:14;;;;;;;12.98;7.82;;;13.10;99.90;;;;;;5071880;28;20743;-76
2022/06/07 07:41:45;;;;;;;12.25;7.97;;;13.10;99.90;;;;;;5059813;28;20569;-77
2022/06/07 07:44:15;;;;;;;10.93;7.00;;;13.20;99.90;;;;;;5042087;28;20036;-77
2022/06/07 07:46:44;;;;;;;15.25;7.70;;;13.20;99.90;;;;;;5045982;28;20036;-78
2022/06/07 07:49:15;;;;;;;12.27;8.05;;;13.20;99.90;;;;;;5043184;28;20087;-77
2022/06/07 07:51:46;;;;;;;13.33;7.50;;;13.20;99.90;;;;;;5067073;28;20123;-77
2022/06/07 07:54:18;;;;;;;9.65;6.97;;;13.20;99.90;;;;;;5049550;28;20379;-79
2022/06/07 07:56:45;;;;;;;13.85;7.32;;;13.20;99.90;;;;;;5059630;28;20384;-78
2022/06/07 07:59:14;;;;;;;14.75;7.20;;;13.20;99.90;;;;;;5049055;28;20051;-78
2022/06/07 08:01:41;;;;;;;12.32;6.88;;;13.20;99.90;;;;;;5048469;28;20044;-78
2022/06/07 08:04:09;;;;;;;10.57;7.25;;;13.20;99.90;;;;;;5028214;28;20092;-78
2022/06/07 08:06:41;;;;;;;10.98;7.38;;;13.20;99.90;;;;;;5029101;28;20538;-77
2022/06/07 08:09:08;;;;;;;12.55;7.40;;;13.20;99.90;;;;;;5055926;28;20094;-80
2022/06/07 08:11:37;;;;;;;11.98;8.05;;;13.20;99.90;;;;;;5028211;28;20040;-78
2022/06/07 08:14:07;;;;;;;14.57;8.10;;;13.20;99.90;;;;;;5068996;28;20052;-79
2022/06/07 08:16:33;;;;;;;10.38;7.65;;;13.30;99.90;;;;;;5061672;28;20044;-77
2022/06/07 08:18:59;;;;;;;12.10;7.72;;;13.30;99.90;;;;;;5068243;28;20156;-78
2022/06/07 08:21:27;;;;;;;11.98;8.25;;;13.30;99.90;;;;;;5079259;28;20055;-76
2022/06/07 08:23:56;;;;;;;12.32;8.30;;;13.40;99.90;;;;;;5045276;28;20044;-77
2022/06/07 08:26:23;;;;;;;13.60;7.95;;;13.30;99.90;;;;;;5043039;28;20094;-77
2022/06/07 08:28:50;;;;;;;13.45;9.25;;;13.30;99.90;;;;;;5026655;28;20040;-78
2022/06/07 08:31:20;;;;;;;11.02;8.63;;;13.30;99.90;;;;;;5079554;28;20128;-77
2022/06/07 08:39:17;;;;;;;13.88;8.93;;;13.30;99.90;;;;;;5060162;28;20048;-77
2022/06/07 08:41:49;;;;;;;17.10;10.32;;;13.30;99.90;;;;;;5049234;28;20072;-77
2022/06/07 08:44:42;;;;;;;14.80;10.40;;;13.30;99.90;;;;;;5081875;28;20589;-76
2022/06/07 08:47:30;;;;;;;16.35;9.25;;;13.30;99.90;;;;;;5041624;28;20045;-76
2022/06/07 08:50:00;;;;;;;16.77;9.75;;;13.40;99.90;;;;;;5059928;28;20052;-76
2022/06/07 08:52:30;;;;;;;15.90;11.02;;;13.40;99.90;;;;;;5041440;28;20500;-76
2022/06/07 08:55:01;;;;;;;17.35;12.10;;;13.40;99.90;;;;;;5044342;28;20816;-77
2022/06/07 08:57:36;;;;;;;18.27;12.38;;;13.40;99.90;;;;;;5048429;28;20051;-76
2022/06/07 09:00:24;;;;;;;17.58;12.82;;;13.40;99.90;;;;;;5077281;28;20544;-77
2022/06/07 09:03:07;;;;;;;19.05;13.10;;;13.40;99.90;;;;;;5068167;28;20068;-77
2022/06/07 09:05:33;;;;;;;15.38;11.93;;;13.40;99.90;;;;;;5065582;28;20574;-77
2022/06/07 09:08:00;;;;;;;15.85;11.75;;;13.40;99.90;;;;;;5050336;28;20044;-77
2022/06/07 09:13:21;;;;;;;16.20;11.85;;;13.30;99.90;;;;;;5051187;28;20522;-76
2022/06/07 09:15:54;;;;;;;16.42;10.80;;;13.30;99.90;;;;;;5077182;28;20051;-80
2022/06/07 09:18:31;;;;;;;27.42;19.90;;;13.30;99.90;;;;;;5052955;28;20083;-83
2022/06/07 09:21:05;;;;;;;16.55;11.55;;;13.40;99.90;;;;;;5081273;28;20930;-78
2022/06/07 09:23:36;;;;;;;16.73;10.48;;;13.50;99.90;;;;;;5068154;28;20080;-79
2022/06/07 09:26:19;;;;;;;15.25;10.35;;;13.50;99.90;;;;;;5069295;28;20036;-79
2022/06/07 09:28:47;;;;;;;20.55;10.00;;;13.50;99.90;;;;;;5076089;28;20061;-80
2022/06/07 09:31:21;;;;;;;12.95;10.40;;;13.50;99.90;;;;;;5047611;28;20712;-79
2022/06/07 09:33:52;;;;;;;13.80;9.65;;;13.40;99.90;;;;;;5102251;27;20039;-81
2022/06/07 09:36:30;;;;;;;11.10;9.90;;;13.40;99.90;;;;;;5044963;28;20124;-82
2022/06/07 09:39:03;;;;;;;13.05;9.82;;;13.40;99.90;;;;;;5075945;28;20055;-80
2022/06/07 09:41:36;;;;;;;12.65;8.10;;;13.40;99.90;;;;;;5044647;28;20132;-80
2022/06/07 09:44:25;;;;;;;16.55;8.77;;;13.30;99.90;;;;;;5044251;28;20040;-76
2022/06/07 09:46:59;;;;;;;15.50;9.85;;;13.40;99.90;;;;;;5046580;28;20067;-76
2022/06/07 09:49:34;;;;;;;14.15;9.23;;;13.50;99.90;;;;;;5046765;28;20036;-76
2022/06/07 09:52:25;;;;;;;13.13;9.63;;;13.40;99.90;;;;;;5063557;28;20052;-76
2022/06/07 09:55:18;;;;;;;14.68;9.00;;;13.40;99.90;;;;;;5054930;28;20053;-75
2022/06/07 09:58:02;;;;;;;16.13;8.57;;;13.40;99.90;;;;;;5047605;28;20681;-77
2022/06/07 10:01:11;;;;;;;16.30;8.55;;;13.30;99.90;;;;;;5071287;28;20449;-76
2022/06/07 10:03:48;;;;;;;13.85;8.55;;;13.30;99.90;;;;;;5022603;28;20049;-79
2022/06/07 10:06:18;;;;;;;15.20;9.40;;;13.20;99.90;;;;;;5021420;28;20255;-76
2022/06/07 10:09:19;;;;;;;13.75;8.27;;;13.20;99.90;;;;;;5057491;28;20382;-76
2022/06/07 10:12:26;;;;;;;15.30;9.07;;;13.20;99.90;;;;;;5092503;28;20055;-76
2022/06/07 10:15:00;;;;;;;12.38;8.35;;;13.10;99.90;;;;;;5070302;28;20087;-76
2022/06/07 10:17:47;;;;;;;14.07;8.25;;;13.20;99.90;;;;;;5060207;28;20094;-76
2022/06/07 10:20:28;;;;;;;17.50;8.98;;;13.10;99.90;;;;;;5054637;28;20047;-76
2022/06/07 10:23:11;;;;;;;10.35;7.63;;;13.20;99.90;;;;;;5056531;28;20059;-76
2022/06/07 10:25:57;;;;;;;13.70;7.40;;;13.10;99.90;;;;;;5088081;28;20043;-76
2022/06/07 10:28:34;;;;;;;11.75;7.40;;;13.20;99.90;;;;;;5053216;28;20040;-76
2022/06/07 10:31:20;;;;;;;16.52;7.97;;;13.40;99.90;;;;;;5048721;28;20044;-77
2022/06/07 10:33:55;;;;;;;11.43;7.18;;;13.60;99.90;;;;;;5047013;28;20570;-76
2022/06/07 10:36:40;;;;;;;12.57;7.47;;;13.70;99.90;;;;;;5067874;28;20048;-76
2022/06/07 10:39:30;;;;;;;10.75;7.03;;;13.90;99.90;;;;;;5049207;28;20479;-76
2022/06/07 10:42:20;;;;;;;13.45;7.32;;;14.10;99.90;;;;;;5064806;28;20062;-76
2022/06/07 10:45:16;;;;;;;11.25;6.72;;;14.20;99.90;;;;;;5077719;28;20047;-76
2022/06/07 10:48:11;;;;;;;13.02;6.80;;;14.10;99.90;;;;;;5043189;28;20032;-76
2022/06/07 10:51:06;;;;;;;9.73;7.28;;;14.10;99.90;;;;;;5043105;28;20040;-74
2022/06/07 10:53:44;;;;;;;11.05;6.88;;;14.10;99.90;;;;;;5043562;28;20063;-77
2022/06/07 10:56:24;;;;;;;11.40;6.78;;;14.10;99.90;;;;;;5028143;28;20039;-77
2022/06/07 10:58:54;;;;;;;13.88;6.78;;;14.20;99.90;;;;;;5048525;28;20044;-77
2022/06/07 11:01:27;;;;;;;12.93;7.20;;;14.10;99.90;;;;;;5052094;28;20098;-76
2022/06/07 11:04:04;;;;;;;12.50;7.03;;;14.00;99.90;;;;;;5081044;28;20040;-76
2022/06/07 11:09:37;;;;;;;12.80;7.03;;;13.80;99.90;;;;;;5082752;28;20449;-76
2022/06/07 11:12:12;;;;;;;11.10;6.45;;;13.60;99.90;;;;;;5048301;28;20089;-76
2022/06/07 11:15:15;;;;;;;13.00;6.70;;;13.60;99.90;;;;;;5048646;28;20039;-76
2022/06/07 11:18:07;;;;;;;15.98;8.07;;;13.50;99.90;;;;;;5045717;28;20050;-77
2022/06/07 11:20:34;;;;;;;12.63;7.00;;;13.50;99.90;;;;;;5075463;28;20056;-78
2022/06/07 11:23:01;;;;;;;10.13;7.00;;;13.40;99.90;;;;;;5053825;28;20058;-76
2022/06/07 11:25:57;;;;;;;11.13;7.28;;;13.40;99.90;;;;;;5050875;28;20105;-75
2022/06/07 11:28:30;;;;;;;11.93;7.40;;;13.50;99.90;;;;;;5058209;28;20065;-75
2022/06/07 11:31:17;;;;;;;11.73;7.30;;;13.50;99.90;;;;;;5061487;28;20415;-75
2022/06/07 11:33:52;;;;;;;12.35;6.85;;;13.50;99.90;;;;;;5060971;28;20606;-76
2022/06/07 11:36:23;;;;;;;10.60;6.63;;;13.50;99.90;;;;;;5050302;28;20055;-72
2022/06/07 11:39:05;;;;;;;16.40;7.15;;;13.50;99.90;;;;;;5044772;28;20055;-84
2022/06/07 11:41:46;;;;;;;11.35;6.68;;;13.60;99.90;;;;;;5048118;28;20149;-80
2022/06/07 11:44:28;;;;;;;13.40;7.25;;;13.60;99.90;;;;;;5044808;28;20100;-79
2022/06/07 11:47:05;;;;;;;10.68;7.40;;;13.50;99.90;;;;;;5064735;28;20525;-80
2022/06/07 11:49:38;;;;;;;14.43;6.35;;;13.60;99.90;;;;;;5061866;28;20052;-79
2022/06/07 11:52:14;;;;;;;13.75;7.03;;;13.70;99.90;;;;;;5048248;28;20044;-80
2022/06/07 11:54:47;;;;;;;7.40;5.70;;;13.70;99.90;;;;;;5051707;28;20044;-80
2022/06/07 11:57:22;;;;;;;10.80;5.72;;;13.70;99.90;;;;;;5057301;28;20048;-81
2022/06/07 11:59:51;;;;;;;9.90;5.10;;;13.80;99.90;;;;;;5074650;28;20075;-80
2022/06/07 12:02:17;;;;;;;8.13;4.50;;;13.90;99.90;;;;;;5064545;28;20090;-81
2022/06/07 12:04:44;;;;;;;9.95;4.50;;;13.80;99.90;;;;;;5060597;28;20118;-80
2022/06/07 12:07:42;;;;;;;11.57;4.60;;;13.90;99.90;;;;;;5071579;28;20674;-81
2022/06/07 12:10:33;;;;;;;9.45;4.60;;;13.80;99.90;;;;;;5043890;28;20044;-80
2022/06/07 12:13:12;;;;;;;9.23;4.95;;;13.90;99.90;;;;;;5068914;28;20048;-80
2022/06/07 12:15:52;;;;;;;8.13;3.97;;;13.90;99.90;;;;;;5026051;28;20121;-81
2022/06/07 12:18:26;;;;;;;9.88;4.45;;;14.00;99.90;;;;;;5060200;28;20051;-80
2022/06/07 12:21:06;;;;;;;9.50;4.72;;;14.00;99.90;;;;;;5060829;28;20551;-80
2022/06/07 12:23:37;;;;;;;8.30;4.68;;;14.10;99.90;;;;;;5060808;28;20121;-80
2022/06/07 12:26:15;;;;;;;13.23;5.28;;;14.10;99.90;;;;;;5073159;28;20713;-80
2022/06/07 12:28:50;;;;;;;9.30;5.63;;;14.10;99.90;;;;;;5047010;28;20134;-80
2022/06/07 12:31:25;;;;;;;9.20;4.90;;;14.00;99.90;;;;;;5078202;28;20036;-80
2022/06/07 12:33:54;;;;;;;9.50;5.68;;;14.10;99.90;;;;;;5065467;28;20125;-80
2022/06/07 12:36:29;;;;;;;7.70;4.70;;;14.10;99.90;;;;;;5049875;28;20525;-81
2022/06/07 12:39:02;;;;;;;7.88;5.03;;;14.10;99.90;;;;;;5063734;28;20051;-86
2022/06/07 12:41:32;;;;;;;10.65;6.65;;;14.10;99.90;;;;;;5070193;28;20048;-81
2022/06/07 12:44:29;;;;;;;8.05;4.13;;;14.10;99.90;;;;;;5057276;28;20060;-82
2022/06/07 12:46:59;;;;;;;6.72;2.90;;;14.10;99.90;;;;;;5064238;28;20080;-80
2022/06/07 12:49:28;;;;;;;5.95;2.90;;;14.20;99.90;;;;;;5081812;28;20078;-82
2022/06/07 12:52:06;;;;;;;8.10;3.28;;;14.30;99.90;;;;;;5063002;28;20044;-80
2022/06/07 12:54:57;;;;;;;8.07;3.47;;;14.20;99.90;;;;;;5036509;28;20079;-81
2022/06/07 12:57:33;;;;;;;10.13;3.20;;;14.30;99.90;;;;;;5069292;28;20036;-81
2022/06/07 13:00:20;;;;;;;8.70;2.90;;;14.30;99.90;;;;;;5049065;28;20040;-81
2022/06/07 13:02:53;;;;;;;6.85;3.03;;;14.30;99.90;;;;;;5053795;28;20037;-82
2022/06/07 13:05:34;;;;;;;6.28;2.67;;;14.50;99.90;;;;;;5038590;28;20062;-81
2022/06/07 13:08:02;;;;;;;8.48;3.95;;;14.60;99.90;;;;;;5066697;28;20039;-82
2022/06/07 13:10:33;;;;;;;7.40;3.70;;;14.50;99.90;;;;;;5071956;28;20113;-80
2022/06/07 13:13:06;;;;;;;9.35;3.78;;;14.50;99.90;;;;;;5057831;28;20577;-81
2022/06/07 13:15:54;;;;;;;12.50;5.15;;;14.50;99.90;;;;;;5046424;28;20048;-80
2022/06/07 13:18:34;;;;;;;9.18;4.78;;;14.50;99.90;;;;;;5059961;28;20127;-80
2022/06/07 13:21:29;;;;;;;11.60;5.18;;;14.60;99.90;;;;;;5045101;28;20069;-80
2022/06/07 13:23:57;;;;;;;12.40;5.07;;;14.70;99.90;;;;;;5053516;28;20070;-80